Meteo Giornale » Osservazioni meteo Stati Uniti (USA) » Chillicothe Agri-Science Center
ore: 21:51 - Osservazioni Meteo Chillicothe Agri-Science Center
Lat. 39° 49' N Lon. 93° 35' W Alt. 234 metri s.l.m.
26 °C
Sereno
Temp. 24 Ore
24 °C
36 °C
Nord
0 Km/h
Dew point 23 °C
Umidità 83 %
Visibilità 10 Km
Il sole sorge alle ore 06:41
Il sole tramonta alle ore 19:47
| Data e Ora | Cielo e Fenomeni | T °C | DP °C | Um. % | Pres. hPa | Vis. km | Vento km/h | |
|---|---|---|---|---|---|---|---|---|
| Oggi h: 21:51 | Sereno | 26 | 23 | 83 | 1014 | 10 | N 0 | |
| Oggi h: 20:51 | Sereno | 27 | 24 | 83 | 1014 | 10 | N 0 | |
| Oggi h: 19:51 | Sereno | 29 | 25 | 79 | 1013 | 10 | N 0 | |
| Oggi h: 18:51 | Sereno | 33 | 23 | 55 | 1013 | 0 | N 0 | |
| Oggi h: 17:51 | Sereno | 36 | 21 | 41 | 1013 | 0 | N 0 | |
| Oggi h: 16:51 | Sereno | 36 | 21 | 41 | 1013 | 0 | N 0 | |
| Oggi h: 15:51 | Sereno | 35 | 21 | 44 | 1014 | 0 | O/SO 13 | |
| Oggi h: 14:51 | Sereno | 34 | 21 | 46 | 1014 | 0 | S/SO 13 | |
| Oggi h: 13:51 | Sereno | 34 | 21 | 46 | 1014 | 0 | N 11.1 | |
| Oggi h: 12:51 | Sereno | 33 | 19 | 43 | 1014 | 0 | S/SO 13 | |
| Oggi h: 11:51 | Sereno | 33 | 19 | 43 | 1014 | 0 | S/SO 14.8 | |
| Oggi h: 10:51 | Sereno | 32 | 19 | 46 | 1014 | 0 | N 11.1 | |
| Oggi h: 09:51 | Sereno | 29 | 19 | 54 | 1014 | 0 | S/SO 16.7 | |
| Oggi h: 08:51 | Sereno | 26 | 18 | 61 | 1014 | 0 | S/SO 14.8 | |
| Oggi h: 07:51 | Sereno | 24 | 18 | 69 | 1014 | 0 | S 16.7 | |
| Oggi h: 06:51 | Sereno | 24 | 18 | 69 | 1014 | 0 | S 13 | |
| Oggi h: 05:51 | Sereno | 24 | 18 | 69 | 1014 | 0 | S 9.3 | |
| Oggi h: 04:51 | Sereno | 25 | 18 | 65 | 1013 | 0 | S 9.3 | |
| Oggi h: 03:51 | Sereno | 26 | 18 | 61 | 1013 | 0 | S/SO 13 | |
| Oggi h: 02:51 | Sereno | 27 | 18 | 57 | 1012 | 0 | S 16.7 | |
| Oggi h: 01:51 | Sereno | 26 | 18 | 61 | 1012 | 0 | S 7.4 | |
| Oggi h: 00:51 | Sereno | 27 | 18 | 57 | 1012 | 0 | S 9.3 | |
| Ieri h: 23:51 | Sereno | 27 | 18 | 57 | 1012 | 0 | S 9.3 | |
| Ieri h: 22:51 | Sereno | 27 | 19 | 61 | 1012 | 0 | S/SE 7.4 | |



